Time;durP1;ratioP1;P1;durP2;ratioP2;P2;SDS_P1;SDS_P2;PMS_P1;PMS_P2;Temp;Humidity;BMP_temperature;BMP_pressure;BME280_temperature;BME280_humidity;BME280_pressure;Samples;Min_cycle;Max_cycle;Signal;HPM_P1;HPM_P2
2024/01/29 00:04:56;;;;;;;1.50;1.00;;;;;;;;;;10370091;28;20212;-65
2024/01/29 00:09:56;;;;;;;3.08;1.17;;;;;;;;;;10343416;28;20208;-66
2024/01/29 00:14:57;;;;;;;3.13;1.40;;;;;;;;;;10343836;28;20628;-65
2024/01/29 00:19:57;;;;;;;1.27;1.27;;;;;;;;;;10345943;28;20219;-65
2024/01/29 00:24:57;;;;;;;2.05;1.10;;;;;;;;;;10352156;28;20266;-67
2024/01/29 00:29:58;;;;;;;1.15;1.05;;;;;;;;;;10344424;28;20300;-65
2024/01/29 00:34:58;;;;;;;1.20;1.08;;;;;;;;;;10350681;28;20216;-65
2024/01/29 00:39:58;;;;;;;0.90;0.90;;;;;;;;;;10352168;28;20228;-65
2024/01/29 00:44:59;;;;;;;2.00;1.00;;;;;;;;;;10355453;28;20214;-66
2024/01/29 00:49:59;;;;;;;3.08;0.95;;;;;;;;;;10339693;28;20254;-65
2024/01/29 00:54:59;;;;;;;4.03;1.08;;;;;;;;;;10351029;28;20208;-66
2024/01/29 00:59:59;;;;;;;1.40;1.40;;;;;;;;;;10347260;28;20220;-65
2024/01/29 01:05:00;;;;;;;1.73;1.33;;;;;;;;;;10327229;28;21815;-66
2024/01/29 01:10:00;;;;;;;1.10;1.10;;;;;;;;;;10344608;28;20212;-66
2024/01/29 01:15:00;;;;;;;2.45;1.30;;;;;;;;;;10341934;28;20265;-66
2024/01/29 01:20:01;;;;;;;1.48;1.38;;;;;;;;;;10364808;28;20531;-66
2024/01/29 01:25:01;;;;;;;1.58;1.48;;;;;;;;;;10351593;28;20219;-65
2024/01/29 01:30:01;;;;;;;1.20;1.10;;;;;;;;;;10340195;28;20350;-65
2024/01/29 01:35:02;;;;;;;1.50;1.40;;;;;;;;;;10364306;28;21179;-65
2024/01/29 01:40:04;;;;;;;1.52;1.05;;;;;;;;;;10351342;28;20644;-65
2024/01/29 01:45:04;;;;;;;1.42;1.23;;;;;;;;;;10362871;28;20724;-65
2024/01/29 01:50:07;;;;;;;1.08;0.88;;;;;;;;;;10347003;28;20230;-65
2024/01/29 01:55:07;;;;;;;0.90;0.90;;;;;;;;;;10350817;28;20227;-66
2024/01/29 02:00:08;;;;;;;2.70;1.50;;;;;;;;;;10350854;28;20702;-66
2024/01/29 02:05:09;;;;;;;1.20;1.10;;;;;;;;;;10340687;28;20470;-65
2024/01/29 02:10:09;;;;;;;1.17;1.00;;;;;;;;;;10336036;28;20223;-66
2024/01/29 02:15:10;;;;;;;1.17;1.17;;;;;;;;;;10340847;28;20216;-65
2024/01/29 02:20:10;;;;;;;1.00;1.00;;;;;;;;;;10344122;28;20208;-67
2024/01/29 02:25:12;;;;;;;2.60;1.48;;;;;;;;;;10351688;28;20307;-65
2024/01/29 02:30:13;;;;;;;0.98;0.90;;;;;;;;;;10343341;28;20294;-65
2024/01/29 02:35:13;;;;;;;1.77;0.88;;;;;;;;;;10351112;28;20216;-65
2024/01/29 02:40:13;;;;;;;1.30;0.68;;;;;;;;;;10349335;28;21015;-65
2024/01/29 02:45:14;;;;;;;2.40;1.25;;;;;;;;;;10337656;28;20223;-65
2024/01/29 02:50:14;;;;;;;1.20;0.77;;;;;;;;;;10334093;28;20220;-65
2024/01/29 02:55:14;;;;;;;1.92;1.30;;;;;;;;;;10344619;28;20220;-65
2024/01/29 03:00:15;;;;;;;0.82;0.82;;;;;;;;;;10349675;28;20294;-64
2024/01/29 03:05:15;;;;;;;2.45;0.85;;;;;;;;;;10339453;28;20570;-65
2024/01/29 03:10:15;;;;;;;0.85;0.85;;;;;;;;;;10342727;28;20227;-65
2024/01/29 03:15:15;;;;;;;0.90;0.90;;;;;;;;;;10355481;28;20563;-65
2024/01/29 03:20:16;;;;;;;2.28;0.98;;;;;;;;;;10352068;28;20299;-65
2024/01/29 03:25:16;;;;;;;1.27;0.90;;;;;;;;;;10357408;28;20220;-65
2024/01/29 03:30:16;;;;;;;1.38;1.10;;;;;;;;;;10359000;28;20224;-65
2024/01/29 03:35:17;;;;;;;1.08;0.70;;;;;;;;;;10353478;28;20226;-65
2024/01/29 03:40:17;;;;;;;3.85;1.25;;;;;;;;;;10349385;28;20491;-65
2024/01/29 03:45:18;;;;;;;3.22;0.70;;;;;;;;;;10349392;28;20262;-65
2024/01/29 03:50:18;;;;;;;0.77;0.77;;;;;;;;;;10341708;28;20218;-66
2024/01/29 03:55:18;;;;;;;1.38;0.80;;;;;;;;;;10353058;28;20208;-66
2024/01/29 04:00:19;;;;;;;1.60;0.80;;;;;;;;;;10349074;28;20216;-65
2024/01/29 04:05:19;;;;;;;3.13;1.00;;;;;;;;;;10343741;28;20299;-65
2024/01/29 04:10:19;;;;;;;2.65;1.08;;;;;;;;;;10350255;28;20310;-65
2024/01/29 04:15:20;;;;;;;2.90;1.13;;;;;;;;;;10343207;28;20501;-65
2024/01/29 04:20:20;;;;;;;1.23;0.68;;;;;;;;;;10352732;28;20243;-66
2024/01/29 04:25:21;;;;;;;1.02;0.93;;;;;;;;;;10352863;28;20211;-66
2024/01/29 04:30:21;;;;;;;1.42;0.95;;;;;;;;;;10352847;28;20619;-66
2024/01/29 04:35:21;;;;;;;1.73;1.08;;;;;;;;;;10348439;28;20232;-66
2024/01/29 04:40:22;;;;;;;0.82;0.82;;;;;;;;;;10355535;28;20216;-65
2024/01/29 04:45:23;;;;;;;2.22;1.13;;;;;;;;;;10348618;28;20410;-65
2024/01/29 04:50:23;;;;;;;1.20;1.10;;;;;;;;;;10349547;28;20219;-66
2024/01/29 04:55:23;;;;;;;0.90;0.82;;;;;;;;;;10345625;28;20459;-65
2024/01/29 05:00:23;;;;;;;1.23;1.23;;;;;;;;;;10349362;28;20216;-65
2024/01/29 05:05:24;;;;;;;0.80;0.80;;;;;;;;;;10348747;28;20251;-66
2024/01/29 05:10:25;;;;;;;1.02;0.95;;;;;;;;;;10356483;28;20474;-65
2024/01/29 05:15:27;;;;;;;1.20;1.10;;;;;;;;;;10356553;28;20216;-66
2024/01/29 05:20:27;;;;;;;2.83;1.10;;;;;;;;;;10361224;28;20720;-65
2024/01/29 05:25:27;;;;;;;1.30;1.30;;;;;;;;;;10359163;28;20299;-66
2024/01/29 05:30:27;;;;;;;1.63;1.52;;;;;;;;;;10353670;28;20327;-65
2024/01/29 05:35:27;;;;;;;1.15;1.05;;;;;;;;;;10352353;28;20267;-65
2024/01/29 05:40:28;;;;;;;1.23;1.13;;;;;;;;;;10353631;28;20535;-66
2024/01/29 05:45:28;;;;;;;1.80;1.30;;;;;;;;;;10349333;28;20216;-65
2024/01/29 05:50:28;;;;;;;1.55;0.98;;;;;;;;;;10336404;28;20219;-65
2024/01/29 05:55:29;;;;;;;1.52;1.13;;;;;;;;;;10318149;28;20303;-65
2024/01/29 06:00:29;;;;;;;2.40;1.23;;;;;;;;;;10338209;28;20211;-64
2024/01/29 06:05:29;;;;;;;2.38;1.10;;;;;;;;;;10338039;28;20717;-65
2024/01/29 06:10:29;;;;;;;1.08;1.02;;;;;;;;;;10346404;28;20215;-65
2024/01/29 06:15:30;;;;;;;3.47;1.42;;;;;;;;;;10340729;28;20277;-66
2024/01/29 06:20:30;;;;;;;1.73;1.10;;;;;;;;;;10341890;28;21062;-66
2024/01/29 06:25:30;;;;;;;3.08;1.10;;;;;;;;;;10354039;28;20211;-66
2024/01/29 06:30:33;;;;;;;2.35;1.10;;;;;;;;;;10331693;28;20724;-65
2024/01/29 06:35:33;;;;;;;1.27;1.27;;;;;;;;;;10343045;28;20725;-65
2024/01/29 06:40:33;;;;;;;1.47;1.03;;;;;;;;;;10353219;28;20238;-65
2024/01/29 06:45:35;;;;;;;1.05;0.77;;;;;;;;;;10339986;28;20475;-66
2024/01/29 06:50:35;;;;;;;6.05;1.10;;;;;;;;;;10331254;28;20389;-65
2024/01/29 06:55:35;;;;;;;1.83;1.08;;;;;;;;;;10342260;28;20204;-65
2024/01/29 07:00:36;;;;;;;0.75;0.75;;;;;;;;;;10333510;28;20220;-66
2024/01/29 07:05:36;;;;;;;1.17;1.10;;;;;;;;;;10338523;28;20274;-65
2024/01/29 07:10:37;;;;;;;1.30;1.02;;;;;;;;;;10334777;28;20247;-66
2024/01/29 07:15:38;;;;;;;1.77;1.48;;;;;;;;;;10338859;28;20242;-66
2024/01/29 07:20:39;;;;;;;1.75;1.00;;;;;;;;;;10336791;28;20224;-65
2024/01/29 07:25:39;;;;;;;1.42;1.05;;;;;;;;;;10339858;28;20290;-66
2024/01/29 07:30:39;;;;;;;1.20;1.15;;;;;;;;;;10346217;28;20215;-66
2024/01/29 07:35:40;;;;;;;0.90;0.88;;;;;;;;;;10333577;28;20675;-66
2024/01/29 07:40:40;;;;;;;1.23;1.08;;;;;;;;;;10343099;28;20795;-66
2024/01/29 07:45:42;;;;;;;2.25;1.35;;;;;;;;;;10337541;28;20510;-66
2024/01/29 07:50:43;;;;;;;1.73;1.42;;;;;;;;;;10328067;28;20714;-66
2024/01/29 07:55:43;;;;;;;1.55;0.93;;;;;;;;;;10331562;28;20207;-67
2024/01/29 08:00:43;;;;;;;1.00;1.00;;;;;;;;;;10333797;28;20231;-66
2024/01/29 08:05:43;;;;;;;1.17;1.05;;;;;;;;;;10338839;28;20278;-66
2024/01/29 08:10:44;;;;;;;1.08;1.08;;;;;;;;;;10331450;28;20479;-67
2024/01/29 08:15:44;;;;;;;2.53;0.98;;;;;;;;;;10333787;28;20936;-66
2024/01/29 08:20:46;;;;;;;1.50;1.40;;;;;;;;;;10334205;28;20215;-67
2024/01/29 08:25:47;;;;;;;1.85;1.17;;;;;;;;;;10343975;28;20208;-66
2024/01/29 08:30:47;;;;;;;3.13;0.98;;;;;;;;;;10334701;28;20211;-67
2024/01/29 08:35:48;;;;;;;1.10;1.02;;;;;;;;;;10338673;28;20757;-67
2024/01/29 08:40:49;;;;;;;1.30;1.20;;;;;;;;;;10340968;28;20308;-67
2024/01/29 08:45:49;;;;;;;1.20;1.20;;;;;;;;;;10331676;28;20234;-66
2024/01/29 08:50:50;;;;;;;1.70;1.00;;;;;;;;;;10329157;28;20220;-66
2024/01/29 08:55:50;;;;;;;1.77;1.17;;;;;;;;;;10336982;28;21153;-66
2024/01/29 09:00:53;;;;;;;1.30;1.30;;;;;;;;;;10337901;28;20226;-66
2024/01/29 09:05:54;;;;;;;2.85;1.30;;;;;;;;;;10347305;28;20208;-66
2024/01/29 09:10:54;;;;;;;1.38;1.25;;;;;;;;;;10342630;28;20227;-66
2024/01/29 09:15:54;;;;;;;1.30;1.23;;;;;;;;;;10347283;28;20204;-66
2024/01/29 09:20:55;;;;;;;1.83;1.25;;;;;;;;;;10338168;28;20992;-66
2024/01/29 09:25:55;;;;;;;1.10;1.05;;;;;;;;;;10342992;28;20578;-66
2024/01/29 09:30:55;;;;;;;1.20;1.20;;;;;;;;;;10322973;28;20219;-67
2024/01/29 09:35:56;;;;;;;1.40;1.10;;;;;;;;;;10337904;28;20224;-67
2024/01/29 09:40:57;;;;;;;1.42;1.33;;;;;;;;;;10343170;28;20231;-65
2024/01/29 09:45:58;;;;;;;4.20;1.10;;;;;;;;;;10346484;28;20220;-65
2024/01/29 09:50:59;;;;;;;1.77;1.10;;;;;;;;;;10330209;28;20304;-66
2024/01/29 09:56:00;;;;;;;2.25;1.02;;;;;;;;;;10346522;28;20228;-66
2024/01/29 10:01:02;;;;;;;1.33;1.02;;;;;;;;;;10347685;28;20315;-66
2024/01/29 10:06:03;;;;;;;1.23;1.02;;;;;;;;;;10339986;28;20220;-66
2024/01/29 10:11:03;;;;;;;3.05;1.20;;;;;;;;;;10344140;28;20219;-66
2024/01/29 10:16:04;;;;;;;0.63;0.63;;;;;;;;;;10346474;28;20263;-66
2024/01/29 10:21:05;;;;;;;1.67;1.00;;;;;;;;;;10339819;28;20928;-66
2024/01/29 10:26:05;;;;;;;1.33;1.30;;;;;;;;;;10335514;28;20497;-67
2024/01/29 10:31:05;;;;;;;1.55;1.20;;;;;;;;;;10332834;28;20208;-68
2024/01/29 10:36:06;;;;;;;1.25;1.25;;;;;;;;;;10343514;28;20593;-68
2024/01/29 10:41:08;;;;;;;1.17;1.17;;;;;;;;;;10338108;28;20285;-68
2024/01/29 10:46:09;;;;;;;1.17;1.17;;;;;;;;;;10334197;28;20254;-69
2024/01/29 10:51:11;;;;;;;1.35;1.27;;;;;;;;;;10336513;28;20227;-68
2024/01/29 10:56:12;;;;;;;1.15;1.00;;;;;;;;;;10335939;28;20212;-68
2024/01/29 11:01:13;;;;;;;1.27;0.93;;;;;;;;;;10343964;28;20220;-68
2024/01/29 11:06:18;;;;;;;1.00;1.00;;;;;;;;;;10331652;28;20216;-68
2024/01/29 11:11:18;;;;;;;1.15;1.05;;;;;;;;;;10331107;28;20266;-69
2024/01/29 11:16:20;;;;;;;1.33;1.17;;;;;;;;;;10341784;28;20299;-69
2024/01/29 11:21:24;;;;;;;2.92;1.30;;;;;;;;;;10334342;28;20228;-68
2024/01/29 11:26:25;;;;;;;1.58;1.20;;;;;;;;;;10339544;28;20220;-68
2024/01/29 11:31:37;;;;;;;2.03;1.25;;;;;;;;;;10323760;28;20225;-69
2024/01/29 11:36:38;;;;;;;1.75;1.17;;;;;;;;;;10339800;28;20841;-69
2024/01/29 11:41:38;;;;;;;1.15;0.90;;;;;;;;;;10340769;28;20235;-69
2024/01/29 11:46:42;;;;;;;1.08;1.00;;;;;;;;;;10336360;28;20269;-68
2024/01/29 11:51:43;;;;;;;1.52;1.25;;;;;;;;;;10338677;28;20205;-69
2024/01/29 11:56:43;;;;;;;0.85;0.85;;;;;;;;;;10336369;28;20232;-69
2024/01/29 12:01:43;;;;;;;1.17;1.15;;;;;;;;;;10346662;28;20612;-68
2024/01/29 12:06:44;;;;;;;1.08;1.05;;;;;;;;;;10335525;28;20227;-68
2024/01/29 12:11:44;;;;;;;1.45;1.15;;;;;;;;;;10338134;28;20208;-67
2024/01/29 12:16:44;;;;;;;1.40;1.30;;;;;;;;;;10340299;28;20222;-68
2024/01/29 12:21:44;;;;;;;0.98;0.98;;;;;;;;;;10339482;28;20595;-68
2024/01/29 12:26:45;;;;;;;1.27;1.23;;;;;;;;;;10334999;28;20495;-68
2024/01/29 12:31:45;;;;;;;0.80;0.80;;;;;;;;;;10338808;28;20461;-68
2024/01/29 12:36:57;;;;;;;1.00;0.90;;;;;;;;;;10338005;28;20824;-68
2024/01/29 12:41:57;;;;;;;1.33;1.00;;;;;;;;;;10325760;28;20290;-68
2024/01/29 12:46:58;;;;;;;2.28;1.08;;;;;;;;;;10320334;28;20294;-68
2024/01/29 12:51:58;;;;;;;2.15;1.00;;;;;;;;;;10335407;28;20216;-67
2024/01/29 12:56:59;;;;;;;1.25;1.25;;;;;;;;;;10337145;28;20228;-68
2024/01/29 13:02:00;;;;;;;1.75;1.20;;;;;;;;;;10334485;28;20246;-68
2024/01/29 13:07:00;;;;;;;1.00;1.00;;;;;;;;;;10330935;28;20269;-68
2024/01/29 13:12:00;;;;;;;1.27;1.08;;;;;;;;;;10336275;28;20710;-68
2024/01/29 13:17:00;;;;;;;1.42;1.33;;;;;;;;;;10323499;28;20219;-68
2024/01/29 13:22:01;;;;;;;1.00;1.00;;;;;;;;;;10337958;28;20224;-68
2024/01/29 13:27:02;;;;;;;1.20;1.20;;;;;;;;;;10343827;28;20262;-68
2024/01/29 13:32:03;;;;;;;1.40;1.30;;;;;;;;;;10340019;28;20224;-68
2024/01/29 13:37:03;;;;;;;1.20;1.20;;;;;;;;;;10335170;28;20689;-68
2024/01/29 13:42:03;;;;;;;2.57;1.10;;;;;;;;;;10344285;28;20463;-68
2024/01/29 13:47:03;;;;;;;2.72;1.30;;;;;;;;;;10339386;28;20474;-68
2024/01/29 13:52:04;;;;;;;1.25;1.25;;;;;;;;;;10339534;28;20222;-68
2024/01/29 13:57:04;;;;;;;2.13;1.30;;;;;;;;;;10339266;28;20223;-67
2024/01/29 14:02:04;;;;;;;1.20;1.10;;;;;;;;;;10330079;28;20220;-67
2024/01/29 14:07:06;;;;;;;1.10;1.10;;;;;;;;;;10343366;28;20702;-68
2024/01/29 14:12:07;;;;;;;1.52;1.50;;;;;;;;;;10339737;28;21008;-67
2024/01/29 14:17:07;;;;;;;1.53;1.43;;;;;;;;;;10329261;28;20212;-66
2024/01/29 14:22:07;;;;;;;2.00;0.98;;;;;;;;;;10348324;28;20524;-68
2024/01/29 14:27:08;;;;;;;1.33;1.23;;;;;;;;;;10333602;28;20245;-67
2024/01/29 14:32:11;;;;;;;1.27;1.17;;;;;;;;;;10340066;28;20212;-67
2024/01/29 14:37:11;;;;;;;1.23;1.23;;;;;;;;;;10343753;28;20245;-67
2024/01/29 14:42:11;;;;;;;1.60;1.38;;;;;;;;;;10304704;28;20220;-67
2024/01/29 14:47:13;;;;;;;1.63;1.52;;;;;;;;;;10334064;28;20953;-67
2024/01/29 14:52:13;;;;;;;2.00;1.90;;;;;;;;;;10343074;28;20216;-67
2024/01/29 14:57:13;;;;;;;2.40;1.50;;;;;;;;;;10337347;28;20227;-66
2024/01/29 15:02:13;;;;;;;3.70;1.95;;;;;;;;;;10345515;28;20220;-67
2024/01/29 15:07:14;;;;;;;2.40;1.85;;;;;;;;;;10334635;28;20216;-67
2024/01/29 15:12:14;;;;;;;2.15;1.50;;;;;;;;;;10342302;28;20218;-67
2024/01/29 15:17:16;;;;;;;1.77;1.58;;;;;;;;;;10339599;28;20264;-68
2024/01/29 15:22:17;;;;;;;3.28;1.73;;;;;;;;;;10335986;28;20596;-67
2024/01/29 15:27:18;;;;;;;1.80;1.70;;;;;;;;;;10339095;28;20231;-67
2024/01/29 15:32:18;;;;;;;2.38;2.20;;;;;;;;;;10335577;28;20220;-67
2024/01/29 15:37:21;;;;;;;4.30;2.70;;;;;;;;;;10324433;28;20243;-67
2024/01/29 15:42:27;;;;;;;4.35;2.53;;;;;;;;;;10334156;28;20323;-67
2024/01/29 15:47:28;;;;;;;3.00;2.00;;;;;;;;;;10345761;28;20699;-67
2024/01/29 15:52:28;;;;;;;3.13;2.38;;;;;;;;;;10357940;28;20208;-67
2024/01/29 15:57:28;;;;;;;4.65;2.47;;;;;;;;;;10346057;28;20239;-67
2024/01/29 16:02:28;;;;;;;5.57;3.50;;;;;;;;;;10336222;28;20228;-67
2024/01/29 16:07:30;;;;;;;2.80;2.60;;;;;;;;;;10333099;28;21055;-67
2024/01/29 16:12:30;;;;;;;6.13;3.60;;;;;;;;;;10336787;28;20277;-66
2024/01/29 16:17:30;;;;;;;6.22;4.65;;;;;;;;;;10339151;28;20226;-67
2024/01/29 16:22:31;;;;;;;3.58;3.20;;;;;;;;;;10327787;28;20796;-67
2024/01/29 16:27:31;;;;;;;6.15;4.13;;;;;;;;;;10333124;28;20314;-66
2024/01/29 16:32:31;;;;;;;5.32;3.80;;;;;;;;;;10331500;28;20219;-67
2024/01/29 16:37:31;;;;;;;4.43;3.92;;;;;;;;;;10340325;28;20224;-66
2024/01/29 16:42:32;;;;;;;5.10;3.78;;;;;;;;;;10338408;28;20219;-66
2024/01/29 16:47:32;;;;;;;4.05;3.72;;;;;;;;;;10322999;28;20247;-66
2024/01/29 16:52:32;;;;;;;4.75;4.10;;;;;;;;;;10334226;28;20252;-66
2024/01/29 16:57:32;;;;;;;11.50;5.28;;;;;;;;;;10339795;28;20219;-66
2024/01/29 17:02:33;;;;;;;4.60;4.20;;;;;;;;;;10336329;28;20470;-66
2024/01/29 17:07:33;;;;;;;4.53;4.20;;;;;;;;;;10335727;28;20254;-66
2024/01/29 17:12:33;;;;;;;4.63;4.15;;;;;;;;;;10331872;28;20801;-66
2024/01/29 17:17:33;;;;;;;6.15;4.95;;;;;;;;;;10336929;28;20235;-66
2024/01/29 17:22:33;;;;;;;6.97;5.60;;;;;;;;;;10341189;28;20243;-66
2024/01/29 17:27:34;;;;;;;14.38;6.63;;;;;;;;;;10326833;28;20223;-66
2024/01/29 17:32:34;;;;;;;15.32;8.23;;;;;;;;;;10328338;28;20240;-66
2024/01/29 17:37:35;;;;;;;17.85;9.07;;;;;;;;;;10343565;28;20278;-67
2024/01/29 17:42:35;;;;;;;13.48;8.02;;;;;;;;;;10342833;28;20777;-66
2024/01/29 17:47:35;;;;;;;14.23;7.55;;;;;;;;;;10335573;28;20667;-68
2024/01/29 17:52:36;;;;;;;13.02;7.70;;;;;;;;;;10336281;28;20242;-67
2024/01/29 17:57:36;;;;;;;12.77;8.45;;;;;;;;;;10335126;28;20604;-67
2024/01/29 18:02:36;;;;;;;16.50;9.07;;;;;;;;;;10337823;28;20284;-67
2024/01/29 18:07:37;;;;;;;15.68;9.05;;;;;;;;;;10332826;28;20227;-67
2024/01/29 18:12:37;;;;;;;12.73;7.75;;;;;;;;;;10352204;28;20204;-67
2024/01/29 18:17:37;;;;;;;11.82;7.93;;;;;;;;;;10322752;28;20235;-67
2024/01/29 18:22:38;;;;;;;11.60;7.40;;;;;;;;;;10335020;28;20219;-67
2024/01/29 18:27:38;;;;;;;12.95;7.60;;;;;;;;;;10328024;28;20319;-67
2024/01/29 18:32:38;;;;;;;11.88;7.15;;;;;;;;;;10333010;28;20257;-67
2024/01/29 18:37:39;;;;;;;12.10;7.35;;;;;;;;;;10325525;28;20228;-67
2024/01/29 18:42:39;;;;;;;12.13;6.60;;;;;;;;;;10334842;28;20285;-67
2024/01/29 18:47:40;;;;;;;10.93;6.72;;;;;;;;;;10320792;28;20212;-67
2024/01/29 18:52:41;;;;;;;10.30;7.22;;;;;;;;;;10344460;28;20220;-67
2024/01/29 18:57:41;;;;;;;20.98;10.48;;;;;;;;;;10326402;28;20232;-67
2024/01/29 19:02:42;;;;;;;17.48;9.45;;;;;;;;;;10327474;28;20228;-67
2024/01/29 19:07:47;;;;;;;25.63;12.23;;;;;;;;;;10328892;28;20646;-67
2024/01/29 19:12:47;;;;;;;19.98;10.82;;;;;;;;;;10336343;28;20243;-67
2024/01/29 19:17:47;;;;;;;33.05;14.02;;;;;;;;;;10330521;28;20242;-67
2024/01/29 19:22:48;;;;;;;32.13;13.43;;;;;;;;;;10327618;28;20234;-67
2024/01/29 19:27:48;;;;;;;20.08;9.65;;;;;;;;;;10319357;28;20310;-67
2024/01/29 19:32:49;;;;;;;21.08;10.20;;;;;;;;;;10319438;28;20316;-67
2024/01/29 19:37:49;;;;;;;17.35;9.38;;;;;;;;;;10320610;28;20959;-67
2024/01/29 19:42:50;;;;;;;13.55;7.93;;;;;;;;;;10314646;28;20224;-67
2024/01/29 19:47:50;;;;;;;13.13;8.40;;;;;;;;;;10330809;28;21335;-67
2024/01/29 19:52:50;;;;;;;11.77;7.75;;;;;;;;;;10335348;28;20297;-66
2024/01/29 19:57:51;;;;;;;12.20;7.15;;;;;;;;;;10331104;28;20246;-67
2024/01/29 20:02:53;;;;;;;15.88;7.07;;;;;;;;;;10313615;28;20688;-67
2024/01/29 20:07:53;;;;;;;10.80;7.10;;;;;;;;;;10326886;28;20246;-67
2024/01/29 20:12:53;;;;;;;10.82;7.13;;;;;;;;;;10331811;28;20212;-67
2024/01/29 20:17:54;;;;;;;11.82;7.68;;;;;;;;;;10331216;28;21149;-67
2024/01/29 20:22:54;;;;;;;11.63;7.30;;;;;;;;;;10329915;28;20234;-67
2024/01/29 20:27:54;;;;;;;14.68;7.03;;;;;;;;;;10340581;28;20317;-67
2024/01/29 20:32:55;;;;;;;10.63;6.68;;;;;;;;;;10334338;28;20220;-66
2024/01/29 20:37:56;;;;;;;13.45;7.22;;;;;;;;;;10339607;28;20215;-66
2024/01/29 20:42:59;;;;;;;8.52;6.72;;;;;;;;;;10330258;28;20232;-67
2024/01/29 20:47:59;;;;;;;21.55;7.90;;;;;;;;;;10338577;28;20208;-66
2024/01/29 20:53:00;;;;;;;11.70;7.47;;;;;;;;;;10343821;28;20636;-67
2024/01/29 20:58:00;;;;;;;17.73;8.70;;;;;;;;;;10339934;28;20236;-67
2024/01/29 21:03:02;;;;;;;14.45;7.88;;;;;;;;;;10336945;28;20576;-67
2024/01/29 21:08:07;;;;;;;16.83;8.57;;;;;;;;;;10340184;28;20247;-67
2024/01/29 21:13:07;;;;;;;21.05;8.68;;;;;;;;;;10324705;28;20220;-67
2024/01/29 21:18:09;;;;;;;15.40;7.63;;;;;;;;;;10341660;28;20235;-66
2024/01/29 21:23:10;;;;;;;13.85;8.52;;;;;;;;;;10338261;28;20216;-67
2024/01/29 21:28:10;;;;;;;12.23;8.13;;;;;;;;;;10331323;28;20837;-66
2024/01/29 21:33:12;;;;;;;10.55;7.22;;;;;;;;;;10318535;28;20216;-66
2024/01/29 21:38:12;;;;;;;15.75;7.03;;;;;;;;;;10343203;28;20299;-66
2024/01/29 21:43:12;;;;;;;12.65;6.70;;;;;;;;;;10328654;28;20210;-66
2024/01/29 21:48:12;;;;;;;12.77;8.20;;;;;;;;;;10340553;28;20964;-66
2024/01/29 21:53:13;;;;;;;10.35;6.85;;;;;;;;;;10348546;28;20207;-66
2024/01/29 21:58:19;;;;;;;14.00;8.15;;;;;;;;;;10346414;28;20224;-66
2024/01/29 22:03:19;;;;;;;11.88;7.60;;;;;;;;;;10346289;28;20211;-66
2024/01/29 22:08:19;;;;;;;15.97;8.47;;;;;;;;;;10343200;28;20971;-66
2024/01/29 22:13:19;;;;;;;11.27;8.13;;;;;;;;;;10355975;28;20463;-66
2024/01/29 22:18:20;;;;;;;14.88;8.38;;;;;;;;;;10337457;28;20212;-67
2024/01/29 22:23:20;;;;;;;11.73;7.70;;;;;;;;;;10351003;28;20307;-66
2024/01/29 22:28:20;;;;;;;13.98;8.25;;;;;;;;;;10349811;28;20812;-66
2024/01/29 22:33:21;;;;;;;13.25;8.02;;;;;;;;;;10349866;28;20208;-66
2024/01/29 22:38:21;;;;;;;13.32;8.25;;;;;;;;;;10343599;28;20706;-66
2024/01/29 22:43:22;;;;;;;15.38;8.93;;;;;;;;;;10345632;28;20216;-66
2024/01/29 22:48:25;;;;;;;17.77;9.98;;;;;;;;;;10349384;28;20322;-66
2024/01/29 22:53:25;;;;;;;24.23;10.73;;;;;;;;;;10338276;28;22171;-66
2024/01/29 22:58:25;;;;;;;17.02;9.52;;;;;;;;;;10350291;28;20239;-65
2024/01/29 23:03:26;;;;;;;19.90;9.75;;;;;;;;;;10353139;28;20708;-66
2024/01/29 23:08:27;;;;;;;16.58;7.93;;;;;;;;;;10346885;28;20315;-66
2024/01/29 23:13:27;;;;;;;12.00;7.88;;;;;;;;;;10339870;28;20216;-67
2024/01/29 23:18:28;;;;;;;12.45;8.27;;;;;;;;;;10347611;28;20673;-66
2024/01/29 23:23:28;;;;;;;12.73;7.60;;;;;;;;;;10348477;28;20287;-67
2024/01/29 23:28:29;;;;;;;12.38;7.43;;;;;;;;;;10338144;28;20219;-67
2024/01/29 23:33:29;;;;;;;11.35;7.32;;;;;;;;;;10337824;28;20466;-64
2024/01/29 23:38:30;;;;;;;7.25;5.93;;;;;;;;;;10325118;28;20270;-64
2024/01/29 23:43:30;;;;;;;9.43;6.35;;;;;;;;;;10341810;28;20311;-65
2024/01/29 23:48:30;;;;;;;8.90;6.25;;;;;;;;;;10340387;28;20231;-66
2024/01/29 23:53:30;;;;;;;9.05;6.75;;;;;;;;;;10315862;28;20702;-66
2024/01/29 23:58:30;;;;;;;11.32;5.97;;;;;;;;;;10340639;28;20231;-66
